Whitefish, Canada
Current Conditions -  °F | °C
As of 1:31 AM on Wednesday 26 Nov 2014 (Local Time) from CYSB Reporting Station
Scattered Clouds Scattered Clouds  
Wind Chill: 16°   Ceiling: Unl
Heat Index: 16°   Visibility: 15mi
Dew Point: 14°   Wind: 2mph
Humidity: 93%   Direction: 340°NNW
Pressure: 30.13"   Gusts: NA
Location:  46.37°N, 81.32°W
Report Text: CYSB 260631Z 34002KT 15SM SCT028 M09/M10 A3013 RMK SC4 SLP226
Loading
Personal Weather Stations






























Interactive Weather Map New forecast layout! Learn more

10-Day Weather Forecast

Advertisements
Track Severe Weather on mobile